createdAt,value
2023-01-10T00:01:44.163Z,6.07
2023-01-10T00:04:10.675Z,6.08
2023-01-10T00:06:37.057Z,6.09
2023-01-10T00:09:03.982Z,6.11
2023-01-10T00:11:48.660Z,6.09
2023-01-10T00:14:15.092Z,6.09
2023-01-10T00:16:42.692Z,6.13
2023-01-10T00:19:10.616Z,6.14
2023-01-10T00:21:37.681Z,6.16
2023-01-10T00:24:19.280Z,6.15
2023-01-10T00:26:51.171Z,6.13
2023-01-10T00:29:19.202Z,6.13
2023-01-10T00:31:45.703Z,6.09
2023-01-10T00:34:12.165Z,6.10
2023-01-10T00:36:38.596Z,6.16
2023-01-10T00:39:04.959Z,6.08
2023-01-10T00:41:49.980Z,6.11
2023-01-10T00:44:16.323Z,6.11
2023-01-10T00:46:42.698Z,6.08
2023-01-10T00:49:09.052Z,6.13
2023-01-10T00:51:35.442Z,6.15
2023-01-10T00:54:01.929Z,6.14
2023-01-10T00:56:28.338Z,6.13
2023-01-10T00:58:54.678Z,6.16
2023-01-10T01:01:21.157Z,6.13
2023-01-10T01:03:47.660Z,6.10
2023-01-10T01:06:14.014Z,6.07
2023-01-10T01:08:40.416Z,6.09
2023-01-10T01:11:06.825Z,6.10
2023-01-10T01:13:33.353Z,6.06
2023-01-10T01:16:00.563Z,6.04
2023-01-10T01:18:27.416Z,6.10
2023-01-10T01:20:56.726Z,6.13
2023-01-10T01:23:24.575Z,6.14
2023-01-10T01:25:53.069Z,6.15
2023-01-10T01:28:20.400Z,6.15
2023-01-10T01:30:46.912Z,6.18
2023-01-10T01:33:13.903Z,6.16
2023-01-10T01:35:44.182Z,6.19
2023-01-10T01:38:10.989Z,6.16
2023-01-10T01:40:41.621Z,6.17
2023-01-10T01:43:26.869Z,6.22
2023-01-10T01:45:54.348Z,6.18
2023-01-10T01:48:39.740Z,6.22
2023-01-10T01:51:27.727Z,6.26
2023-01-10T01:54:02.295Z,6.19
2023-01-10T01:56:37.157Z,6.14
2023-01-10T01:59:09.494Z,6.17
2023-01-10T02:01:40.829Z,6.17
2023-01-10T02:04:13.563Z,6.19
2023-01-10T02:06:40.872Z,6.19
2023-01-10T02:09:25.457Z,6.18
2023-01-10T02:11:51.942Z,6.19
2023-01-10T02:14:20.498Z,6.22
2023-01-10T02:16:47.072Z,6.20
2023-01-10T02:19:54.124Z,6.19
2023-01-10T02:22:41.679Z,6.17
2023-01-10T02:25:48.620Z,6.15
2023-01-10T02:28:29.995Z,6.09
2023-01-10T02:31:05.532Z,6.06
2023-01-10T02:33:50.822Z,6.05
2023-01-10T02:36:23.654Z,5.99
2023-01-10T02:39:04.297Z,6.01
2023-01-10T02:42:06.478Z,5.93
2023-01-10T02:45:02.095Z,5.91
2023-01-10T02:47:35.791Z,5.88
2023-01-10T02:50:24.767Z,5.87
2023-01-10T02:52:51.848Z,5.78
2023-01-10T02:55:18.444Z,5.73
2023-01-10T02:58:03.794Z,5.76
2023-01-10T03:00:45.845Z,5.77
2023-01-10T03:03:33.286Z,5.77
2023-01-10T03:06:23.815Z,5.67
2023-01-10T03:08:54.909Z,5.72
2023-01-10T03:11:40.053Z,5.67
2023-01-10T03:14:16.028Z,5.68
2023-01-10T03:16:47.835Z,5.69
2023-01-10T03:19:19.649Z,5.67
2023-01-10T03:21:49.364Z,5.68
2023-01-10T03:24:18.753Z,5.57
2023-01-10T03:26:52.618Z,5.55
2023-01-10T03:29:25.670Z,5.50
2023-01-10T03:31:57.190Z,5.47
2023-01-10T03:34:24.977Z,5.43
2023-01-10T03:37:13.102Z,5.43
2023-01-10T03:40:00.205Z,5.35
2023-01-10T03:43:00.098Z,5.29
2023-01-10T03:45:39.636Z,5.24
2023-01-10T03:48:08.548Z,5.21
2023-01-10T03:50:37.214Z,5.26
2023-01-10T03:53:04.435Z,5.22
2023-01-10T03:55:32.739Z,5.24
2023-01-10T03:57:59.097Z,5.21
2023-01-10T04:00:26.097Z,5.25
2023-01-10T04:02:52.641Z,5.19
2023-01-10T04:05:19.143Z,5.17
2023-01-10T04:07:45.747Z,5.18
2023-01-10T04:10:12.159Z,5.17
2023-01-10T04:12:38.573Z,5.20
2023-01-10T04:15:05.487Z,5.17
2023-01-10T04:17:31.859Z,5.18
2023-01-10T04:19:58.346Z,5.19
2023-01-10T04:22:24.775Z,5.24
2023-01-10T04:24:52.034Z,5.29
2023-01-10T04:27:18.872Z,5.32
2023-01-10T04:29:45.241Z,5.35
2023-01-10T04:32:11.860Z,5.36
2023-01-10T04:34:38.347Z,5.31
2023-01-10T04:37:04.792Z,5.30
2023-01-10T04:39:31.255Z,5.28
2023-01-10T04:41:57.667Z,5.21
2023-01-10T04:44:24.054Z,5.23
2023-01-10T04:46:50.417Z,5.26
2023-01-10T04:49:16.862Z,5.30
2023-01-10T04:51:43.250Z,5.25
2023-01-10T04:54:09.653Z,5.22
2023-01-10T04:56:36.057Z,5.26
2023-01-10T04:59:02.542Z,5.30
2023-01-10T05:01:28.993Z,5.31
2023-01-10T05:03:55.974Z,5.36
2023-01-10T05:06:23.898Z,5.37
2023-01-10T05:08:50.605Z,5.37
2023-01-10T05:11:16.989Z,5.44
2023-01-10T05:13:43.414Z,5.43
2023-01-10T05:16:09.840Z,5.38
2023-01-10T05:18:36.265Z,5.33
2023-01-10T05:21:08.162Z,5.37
2023-01-10T05:23:35.076Z,5.39
2023-01-10T05:26:08.809Z,5.34
2023-01-10T05:28:35.591Z,5.35
2023-01-10T05:31:02.256Z,5.31
2023-01-10T05:33:28.646Z,5.32
2023-01-10T05:35:55.094Z,5.35
2023-01-10T05:38:21.677Z,5.31
2023-01-10T05:40:48.095Z,5.22
2023-01-10T05:43:14.519Z,5.20
2023-01-10T05:45:42.300Z,5.19
2023-01-10T05:48:08.667Z,5.13
2023-01-10T05:50:35.103Z,5.19
2023-01-10T05:53:05.640Z,5.11
2023-01-10T05:55:32.188Z,5.11
2023-01-10T05:57:58.560Z,5.07
2023-01-10T06:00:27.085Z,5.03
2023-01-10T06:02:56.970Z,5.00
2023-01-10T06:05:24.709Z,4.98
2023-01-10T06:07:51.339Z,4.91
2023-01-10T06:10:17.874Z,4.90
2023-01-10T06:12:44.218Z,4.93
2023-01-10T06:15:11.338Z,4.90
2023-01-10T06:17:37.711Z,4.92
2023-01-10T06:20:04.476Z,4.93
2023-01-10T06:22:30.822Z,5.02
2023-01-10T06:24:57.222Z,4.96
2023-01-10T06:27:23.604Z,5.00
2023-01-10T06:29:49.966Z,4.99
2023-01-10T06:32:16.313Z,5.00
2023-01-10T06:34:42.685Z,5.04
2023-01-10T06:37:09.006Z,5.07
2023-01-10T06:39:35.434Z,5.06
2023-01-10T06:42:01.818Z,5.06
2023-01-10T06:44:28.235Z,5.13
2023-01-10T06:46:54.628Z,5.12
2023-01-10T06:49:20.978Z,5.17
2023-01-10T06:51:47.350Z,5.14
2023-01-10T06:54:13.741Z,5.19
2023-01-10T06:56:40.092Z,5.19
2023-01-10T06:59:08.421Z,5.22
2023-01-10T07:01:35.492Z,5.22
2023-01-10T07:04:02.058Z,5.26
2023-01-10T07:06:28.479Z,5.21
2023-01-10T07:08:54.886Z,5.24
2023-01-10T07:11:21.260Z,5.28
2023-01-10T07:13:47.841Z,5.31
2023-01-10T07:16:16.210Z,5.28
2023-01-10T07:18:43.367Z,5.34
2023-01-10T07:21:10.536Z,5.34
2023-01-10T07:23:38.098Z,5.34
2023-01-10T07:26:06.695Z,5.31
2023-01-10T07:28:36.718Z,5.35
2023-01-10T07:31:05.515Z,5.29
2023-01-10T07:33:32.273Z,5.35
2023-01-10T07:36:00.550Z,5.34
2023-01-10T07:38:27.102Z,5.28
2023-01-10T07:40:53.577Z,5.30
2023-01-10T07:43:19.923Z,5.31
2023-01-10T07:45:46.347Z,5.28
2023-01-10T07:48:14.082Z,5.32
2023-01-10T07:50:40.582Z,5.33
2023-01-10T07:53:07.583Z,5.30
2023-01-10T07:55:36.307Z,5.23
2023-01-10T07:58:02.743Z,5.24
2023-01-10T08:00:29.111Z,5.26
2023-01-10T08:02:56.165Z,5.25
2023-01-10T08:05:23.684Z,5.25
2023-01-10T08:07:50.223Z,5.30
2023-01-10T08:10:16.719Z,5.25
2023-01-10T08:12:43.269Z,5.15
2023-01-10T08:15:10.215Z,5.16
2023-01-10T08:17:37.011Z,5.19
2023-01-10T08:20:03.732Z,5.29
2023-01-10T08:22:30.160Z,5.25
2023-01-10T08:24:56.507Z,5.26
2023-01-10T08:27:22.893Z,5.34
2023-01-10T08:29:49.628Z,5.28
2023-01-10T08:32:16.145Z,5.30
2023-01-10T08:34:42.550Z,5.38
2023-01-10T08:37:13.026Z,5.38
2023-01-10T08:39:39.535Z,5.35
2023-01-10T08:42:06.028Z,5.43
2023-01-10T08:44:32.466Z,5.48
2023-01-10T08:46:59.004Z,5.41
2023-01-10T08:49:25.522Z,5.47
2023-01-10T08:51:52.268Z,5.48
2023-01-10T08:54:18.639Z,5.66
2023-01-10T08:56:45.115Z,5.59
2023-01-10T08:59:11.492Z,5.66
2023-01-10T09:01:37.978Z,5.68
2023-01-10T09:04:05.277Z,5.72
2023-01-10T09:06:31.728Z,5.83
2023-01-10T09:08:58.134Z,5.68
2023-01-10T09:11:24.511Z,5.73
2023-01-10T09:13:51.223Z,5.88
2023-01-10T09:16:18.617Z,5.89
2023-01-10T09:18:45.378Z,5.89
2023-01-10T09:21:11.765Z,5.91
2023-01-10T09:23:39.868Z,6.12
2023-01-10T09:26:06.671Z,6.20
2023-01-10T09:28:33.009Z,6.49
2023-01-10T09:31:00.992Z,6.64
2023-01-10T09:33:32.284Z,6.86
2023-01-10T09:36:13.569Z,7.38
2023-01-10T09:38:39.986Z,7.72
2023-01-10T09:41:32.422Z,7.97
2023-01-10T09:44:17.267Z,8.03
2023-01-10T09:47:14.192Z,7.69
2023-01-10T09:50:19.148Z,8.04
2023-01-10T09:52:50.512Z,8.14
2023-01-10T09:55:27.192Z,8.49
2023-01-10T09:57:55.960Z,8.22
2023-01-10T10:00:29.000Z,8.37
2023-01-10T10:02:56.843Z,8.73
2023-01-10T10:05:26.121Z,9.01
2023-01-10T10:07:56.602Z,9.33
2023-01-10T10:10:32.248Z,9.46
2023-01-10T10:13:40.140Z,9.36
2023-01-10T10:16:21.527Z,9.12
2023-01-10T10:19:07.603Z,8.98
2023-01-10T10:22:09.497Z,8.59
2023-01-10T10:24:41.656Z,8.94
2023-01-10T10:27:20.268Z,9.05
2023-01-10T10:30:01.894Z,9.16
2023-01-10T10:32:44.671Z,9.10
2023-01-10T10:35:20.087Z,9.18
2023-01-10T10:37:50.256Z,9.00
2023-01-10T10:40:21.829Z,8.92
2023-01-10T10:42:51.297Z,9.17
2023-01-10T10:45:29.040Z,9.11
2023-01-10T10:48:05.729Z,9.33
2023-01-10T10:50:35.092Z,9.59
2023-01-10T10:53:03.584Z,9.70
2023-01-10T10:55:36.517Z,10.00
2023-01-10T10:58:05.450Z,9.59
2023-01-10T11:00:32.272Z,9.41
2023-01-10T11:03:12.543Z,9.19
2023-01-10T11:05:41.481Z,9.15
2023-01-10T11:08:13.708Z,9.08
2023-01-10T11:10:42.869Z,9.00
2023-01-10T11:13:17.641Z,9.09
2023-01-10T11:15:46.611Z,9.07
2023-01-10T11:18:16.512Z,8.80
2023-01-10T11:20:57.553Z,8.92
2023-01-10T11:23:51.898Z,8.80
2023-01-10T11:26:29.724Z,8.67
2023-01-10T11:29:16.730Z,8.63
2023-01-10T11:31:44.731Z,8.59
2023-01-10T11:34:29.987Z,8.70
2023-01-10T11:37:02.644Z,8.78
2023-01-10T11:39:30.749Z,8.66
2023-01-10T11:41:59.427Z,8.97
2023-01-10T11:44:28.377Z,9.06
2023-01-10T11:46:57.805Z,8.83
2023-01-10T11:49:32.706Z,8.77
2023-01-10T11:52:24.660Z,8.76
2023-01-10T11:54:51.715Z,8.67
2023-01-10T11:57:27.488Z,8.78
2023-01-10T12:00:07.973Z,8.85
2023-01-10T12:02:42.812Z,8.94
2023-01-10T12:05:12.752Z,9.01
2023-01-10T12:08:01.883Z,8.95
2023-01-10T12:10:28.985Z,8.75
2023-01-10T12:12:58.162Z,8.65
2023-01-10T12:15:31.000Z,8.58
2023-01-10T12:17:59.747Z,8.66
2023-01-10T12:20:37.651Z,8.81
2023-01-10T12:23:07.957Z,8.65
2023-01-10T12:25:40.976Z,8.58
2023-01-10T12:28:29.994Z,8.67
2023-01-10T12:31:01.176Z,8.72
2023-01-10T12:33:38.157Z,8.65
2023-01-10T12:36:09.131Z,8.66
2023-01-10T12:38:58.000Z,8.68
2023-01-10T12:41:53.463Z,8.59
2023-01-10T12:44:28.621Z,8.62
2023-01-10T12:47:07.692Z,8.70
2023-01-10T12:49:44.493Z,8.70
2023-01-10T12:52:17.548Z,8.69
2023-01-10T12:54:47.102Z,8.63
2023-01-10T12:57:37.687Z,8.54
2023-01-10T13:00:06.657Z,8.52
2023-01-10T13:02:43.893Z,8.53
2023-01-10T13:05:22.959Z,8.56
2023-01-10T13:07:51.497Z,8.55
2023-01-10T13:10:21.859Z,8.48
2023-01-10T13:13:13.684Z,8.52
2023-01-10T13:15:56.316Z,8.55
2023-01-10T13:18:28.634Z,8.37
2023-01-10T13:21:08.924Z,8.39
2023-01-10T13:23:46.842Z,8.33
2023-01-10T13:26:13.297Z,8.20
2023-01-10T13:28:52.565Z,8.28
2023-01-10T13:31:33.135Z,8.36
2023-01-10T13:34:10.944Z,8.29
2023-01-10T13:36:42.682Z,8.17
2023-01-10T13:39:33.045Z,8.11
2023-01-10T13:42:17.861Z,8.13
2023-01-10T13:45:02.593Z,8.10
2023-01-10T13:47:40.996Z,8.04
2023-01-10T13:50:46.865Z,8.03
2023-01-10T13:53:14.661Z,7.96
2023-01-10T13:55:46.378Z,8.01
2023-01-10T13:58:15.856Z,7.97
2023-01-10T14:01:05.327Z,8.00
2023-01-10T14:03:56.021Z,7.90
2023-01-10T14:06:28.356Z,7.97
2023-01-10T14:09:23.824Z,7.84
2023-01-10T14:12:01.867Z,7.80
2023-01-10T14:14:39.170Z,7.84
2023-01-10T14:17:20.031Z,7.74
2023-01-10T14:19:49.313Z,7.72
2023-01-10T14:22:31.030Z,7.68
2023-01-10T14:24:59.620Z,7.69
2023-01-10T14:27:33.945Z,7.72
2023-01-10T14:30:02.509Z,7.69
2023-01-10T14:32:32.489Z,7.68
2023-01-10T14:35:02.481Z,7.61
2023-01-10T14:37:42.069Z,7.55
2023-01-10T14:40:22.589Z,7.60
2023-01-10T14:42:50.360Z,7.61
2023-01-10T14:45:41.234Z,7.52
2023-01-10T14:48:26.850Z,7.55
2023-01-10T14:51:13.391Z,7.52
2023-01-10T14:53:39.913Z,7.58
2023-01-10T14:56:18.915Z,7.54
2023-01-10T14:58:45.316Z,7.48
2023-01-10T15:01:13.345Z,7.48
2023-01-10T15:03:46.206Z,7.55
2023-01-10T15:06:12.679Z,7.50
2023-01-10T15:08:39.044Z,7.46
2023-01-10T15:11:09.427Z,7.48
2023-01-10T15:13:41.239Z,7.51
2023-01-10T15:16:08.033Z,7.47
2023-01-10T15:18:40.298Z,7.42
2023-01-10T15:21:07.186Z,7.41
2023-01-10T15:23:35.776Z,7.40
2023-01-10T15:26:07.525Z,7.42
2023-01-10T15:28:35.912Z,7.41
2023-01-10T15:31:07.942Z,7.40
2023-01-10T15:33:36.517Z,7.38
2023-01-10T15:36:12.491Z,7.36
2023-01-10T15:38:43.929Z,7.38
2023-01-10T15:41:20.916Z,7.33
2023-01-10T15:43:51.985Z,7.35
2023-01-10T15:46:23.171Z,7.29
2023-01-10T15:49:01.705Z,7.29
2023-01-10T15:51:32.774Z,7.20
2023-01-10T15:54:03.372Z,7.13
2023-01-10T15:56:48.231Z,7.09
2023-01-10T15:59:30.076Z,7.07
2023-01-10T16:02:29.212Z,7.03
2023-01-10T16:04:58.985Z,6.95
2023-01-10T16:07:29.857Z,6.98
2023-01-10T16:10:14.334Z,6.87
2023-01-10T16:13:05.404Z,6.78
2023-01-10T16:15:40.763Z,6.70
2023-01-10T16:18:07.292Z,6.72
2023-01-10T16:20:40.476Z,6.63
2023-01-10T16:23:14.690Z,6.61
2023-01-10T16:25:45.509Z,6.55
2023-01-10T16:28:13.670Z,6.57
2023-01-10T16:30:49.102Z,6.52
2023-01-10T16:33:18.546Z,6.46
2023-01-10T16:35:46.161Z,6.43
2023-01-10T16:38:13.472Z,6.48
2023-01-10T16:41:01.267Z,6.55
2023-01-10T16:43:29.252Z,6.39
2023-01-10T16:46:03.681Z,6.42
2023-01-10T16:48:31.601Z,6.34
2023-01-10T16:51:13.579Z,6.30
2023-01-10T16:53:40.071Z,6.23
2023-01-10T16:56:07.067Z,6.13
2023-01-10T16:58:33.957Z,6.20
2023-01-10T17:01:00.932Z,6.17
2023-01-10T17:03:38.933Z,6.20
2023-01-10T17:06:05.942Z,6.13
2023-01-10T17:08:32.310Z,6.13
2023-01-10T17:11:06.765Z,6.03
2023-01-10T17:13:36.239Z,6.08
2023-01-10T17:16:02.715Z,6.08
2023-01-10T17:18:29.123Z,6.07
2023-01-10T17:20:57.282Z,6.14
2023-01-10T17:23:25.456Z,6.05
2023-01-10T17:26:01.939Z,6.02
2023-01-10T17:28:29.429Z,5.98
2023-01-10T17:30:56.583Z,6.02
2023-01-10T17:33:23.454Z,5.98
2023-01-10T17:35:54.790Z,5.87
2023-01-10T17:38:22.138Z,5.89
2023-01-10T17:40:48.733Z,5.83
2023-01-10T17:43:16.547Z,5.84
2023-01-10T17:45:45.342Z,5.84
2023-01-10T17:48:14.925Z,5.90
2023-01-10T17:50:42.824Z,5.90
2023-01-10T17:53:09.593Z,6.02
2023-01-10T17:55:36.347Z,5.93
2023-01-10T17:58:03.629Z,5.96
2023-01-10T18:00:30.379Z,5.85
2023-01-10T18:02:56.800Z,5.83
2023-01-10T18:05:23.233Z,5.87
2023-01-10T18:07:49.688Z,5.84
2023-01-10T18:10:16.164Z,5.79
2023-01-10T18:12:43.611Z,5.72
2023-01-10T18:15:10.341Z,5.74
2023-01-10T18:17:36.681Z,5.78
2023-01-10T18:20:03.619Z,5.73
2023-01-10T18:22:48.458Z,5.70
2023-01-10T18:25:17.203Z,5.73
2023-01-10T18:27:43.908Z,5.67
2023-01-10T18:30:10.689Z,5.71
2023-01-10T18:32:37.059Z,5.66
2023-01-10T18:35:03.690Z,5.64
2023-01-10T18:37:30.099Z,5.61
2023-01-10T18:39:56.452Z,5.61
2023-01-10T18:42:22.847Z,5.64
2023-01-10T18:44:49.243Z,5.63
2023-01-10T18:47:15.671Z,5.65
2023-01-10T18:49:42.031Z,5.63
2023-01-10T18:52:08.451Z,5.74
2023-01-10T18:54:34.859Z,5.72
2023-01-10T18:57:01.191Z,5.75
2023-01-10T18:59:27.608Z,5.67
2023-01-10T19:01:54.019Z,5.63
2023-01-10T19:04:20.394Z,5.64
2023-01-10T19:06:46.799Z,5.71
2023-01-10T19:09:13.277Z,5.66
2023-01-10T19:11:39.672Z,5.67
2023-01-10T19:14:06.176Z,5.68
2023-01-10T19:16:32.586Z,5.68
2023-01-10T19:19:05.727Z,5.71
2023-01-10T19:21:33.475Z,5.68
2023-01-10T19:24:02.538Z,5.71
2023-01-10T19:26:28.904Z,5.70
2023-01-10T19:28:55.507Z,5.74
2023-01-10T19:31:24.685Z,5.71
2023-01-10T19:33:51.797Z,5.77
2023-01-10T19:36:22.020Z,5.79
2023-01-10T19:38:48.758Z,5.80
2023-01-10T19:41:15.884Z,5.77
2023-01-10T19:43:42.276Z,5.75
2023-01-10T19:46:12.944Z,5.83
2023-01-10T19:48:39.690Z,5.78
2023-01-10T19:51:11.532Z,5.78
2023-01-10T19:53:42.011Z,5.80
2023-01-10T19:56:09.947Z,5.80
2023-01-10T19:58:37.786Z,5.84
2023-01-10T20:01:15.923Z,5.85
2023-01-10T20:03:43.462Z,5.79
2023-01-10T20:06:14.200Z,5.78
2023-01-10T20:08:41.380Z,5.87
2023-01-10T20:11:07.774Z,5.93
2023-01-10T20:13:37.151Z,5.84
2023-01-10T20:16:05.226Z,5.86
2023-01-10T20:18:31.890Z,5.85
2023-01-10T20:20:58.911Z,5.90
2023-01-10T20:23:25.242Z,5.87
2023-01-10T20:25:58.108Z,5.93
2023-01-10T20:28:26.047Z,5.98
2023-01-10T20:30:53.493Z,5.92
2023-01-10T20:33:21.842Z,5.95
2023-01-10T20:35:58.659Z,5.90
2023-01-10T20:38:26.863Z,5.92
2023-01-10T20:41:02.890Z,5.96
2023-01-10T20:43:29.515Z,5.97
2023-01-10T20:45:56.240Z,6.02
2023-01-10T20:48:22.793Z,6.00
2023-01-10T20:50:49.448Z,6.05
2023-01-10T20:53:15.775Z,6.10
2023-01-10T20:55:43.107Z,6.11
2023-01-10T20:58:09.632Z,6.06
2023-01-10T21:00:36.059Z,6.13
2023-01-10T21:03:02.548Z,6.15
2023-01-10T21:05:28.974Z,6.20
2023-01-10T21:07:55.308Z,6.18
2023-01-10T21:10:21.711Z,6.22
2023-01-10T21:12:48.091Z,6.21
2023-01-10T21:15:14.637Z,6.28
2023-01-10T21:17:42.799Z,6.25
2023-01-10T21:20:10.192Z,6.29
2023-01-10T21:22:36.538Z,6.34
2023-01-10T21:25:03.116Z,6.40
2023-01-10T21:27:31.308Z,6.41
2023-01-10T21:29:58.289Z,6.43
2023-01-10T21:32:25.063Z,6.47
2023-01-10T21:34:51.706Z,6.49
2023-01-10T21:37:18.117Z,6.47
2023-01-10T21:39:44.521Z,6.51
2023-01-10T21:42:30.547Z,6.52
2023-01-10T21:44:57.166Z,6.61
2023-01-10T21:47:23.898Z,6.54
2023-01-10T21:49:50.292Z,6.63
2023-01-10T21:52:17.301Z,6.65
2023-01-10T21:54:43.679Z,6.65
2023-01-10T21:57:10.323Z,6.66
2023-01-10T21:59:40.711Z,6.71
2023-01-10T22:02:15.070Z,6.64
2023-01-10T22:04:45.248Z,6.65
2023-01-10T22:07:11.721Z,6.67
2023-01-10T22:09:38.122Z,6.62
2023-01-10T22:12:04.661Z,6.65
2023-01-10T22:14:31.059Z,6.74
2023-01-10T22:16:57.463Z,6.73
2023-01-10T22:19:23.911Z,6.72
2023-01-10T22:21:50.284Z,6.78
2023-01-10T22:24:16.747Z,6.77
2023-01-10T22:26:43.077Z,6.77
2023-01-10T22:29:09.461Z,6.78
2023-01-10T22:31:35.932Z,6.83
2023-01-10T22:34:02.506Z,6.83
2023-01-10T22:36:28.877Z,6.84
2023-01-10T22:38:55.263Z,6.89
2023-01-10T22:41:27.270Z,6.84
2023-01-10T22:43:55.102Z,6.80
2023-01-10T22:46:21.711Z,6.79
2023-01-10T22:48:48.526Z,6.82
2023-01-10T22:51:16.976Z,6.85
2023-01-10T22:53:48.139Z,6.86
2023-01-10T22:56:14.480Z,6.84
2023-01-10T22:58:47.588Z,6.88
2023-01-10T23:01:19.506Z,6.94
2023-01-10T23:03:46.261Z,6.94
2023-01-10T23:06:13.176Z,7.01
2023-01-10T23:08:41.208Z,7.01
2023-01-10T23:11:09.309Z,7.07
2023-01-10T23:13:36.505Z,7.10
2023-01-10T23:16:09.403Z,7.21
2023-01-10T23:18:36.164Z,7.18
2023-01-10T23:21:03.129Z,7.15
2023-01-10T23:23:30.063Z,7.18
2023-01-10T23:26:05.216Z,7.27
2023-01-10T23:28:36.114Z,7.32
2023-01-10T23:31:03.812Z,7.32
2023-01-10T23:33:31.419Z,7.37
2023-01-10T23:35:58.118Z,7.39
2023-01-10T23:38:24.979Z,7.47
2023-01-10T23:40:51.646Z,7.51
2023-01-10T23:43:18.332Z,7.54
2023-01-10T23:45:45.290Z,7.51
2023-01-10T23:48:12.117Z,7.59
2023-01-10T23:50:39.075Z,7.60
2023-01-10T23:53:05.889Z,7.59
2023-01-10T23:55:33.008Z,7.68
2023-01-10T23:57:59.921Z,7.65
